Ottertail, Minnesota
Current Conditions -  °F | °C
As of 4:34 AM on Sunday 21 Dec 2014 (Local Time) from KADC Reporting Station
Haze Haze  
Wind Chill: 18°   Ceiling: 400
Heat Index: 28°   Visibility: 5mi
Dew Point: 28°   Wind: 12mph
Humidity: 100%   Direction: 170°S
Pressure: 29.83"   Gusts: 20mph
Location:  46.43°N, 95.56°W
Report Text: KADC 211034Z AUTO 17010G17KT 5SM BR OVC004 M02/M02 A2983 RMK AO2
Loading
Personal Weather Stations






























Interactive Weather Map New forecast layout! Learn more

10-Day Weather Forecast

Advertisements
Track Severe Weather on mobile